• Join FlightAware (Why Join?)
  • Login
  • US Flag 
04:57PM EDT


 

Airport Tracker/Info


-or-


 

Live Flight TrackerFlight Track Log ✈ AWE3874 ✈ 05-May-2013 ✈ KLEX - KCLT

Flight Track Log - Related Links

Times and Time Zones

All times are in EDT time to prevent confusion due to time zone crossing. See the AWE3874 flight status page for this flight to view local times or setup timezone preferences in your user account.

Time Position Orientation Groundspeed Altitude Reporting Facility
EDT Latitude Longitude Course Direction KTS MPH feet Rate Location/Type
02:48PM 38.0597 -84.5350 83° East 227 261 4,400  Level Indianapolis Center
02:49PM 37.8849 -84.2917 125° Southeast  Level FlightAware Approximate
02:49PM 38.0264 -84.4706 123° Southeast 219 252 6,800  Level Indianapolis Center
02:50PM 37.8302 -84.1913 125° Southeast  Level FlightAware Approximate
02:50PM 37.9847 -84.3897 123° Southeast 232 267 9,800  Level Indianapolis Center
02:51PM 37.7884 -84.0819 113° Southeast  Level FlightAware Approximate
02:51PM 37.9464 -84.3192 125° Southeast 241 277 12,200  Level Indianapolis Center
02:52PM 37.7331 -83.9826 113° Southeast  Level FlightAware Approximate
02:52PM 37.9064 -84.2422 123° Southeast 256 295 13,800  Level Indianapolis Center
02:53PM 37.8636 -84.1581 123° Southeast 279 321 15,400 1,440 Climbing Indianapolis Center
02:54PM 37.8203 -84.0756 124° Southeast 283 326 16,800 1,500 Climbing Indianapolis Center
02:55PM 37.7753 -83.9911 124° Southeast 288 331 18,500 1,560 Climbing Indianapolis Center
02:56PM 37.7225 -83.8906 124° Southeast 293 337 20,100 1,380 Climbing Indianapolis Center
02:57PM 37.6758 -83.8003 123° Southeast 303 349 21,400 1,320 Climbing Indianapolis Center
02:58PM 37.6297 -83.7108 123° Southeast 303 349 22,900 720 Climbing Indianapolis Center
02:59PM 37.5800 -83.6175 124° Southeast 318 366 23,000  Climbing Indianapolis Center
03:00PM 37.5244 -83.5136 124° Southeast 352 405 23,000 660 Level Indianapolis Center
03:01PM 37.4578 -83.3881 124° Southeast 366 421 24,400 1,740 Climbing Indianapolis Center
03:02PM 37.4058 -83.2922 124° Southeast 336 387 26,600 1,200 Climbing Indianapolis Center
03:03PM 37.3442 -83.2083 133° Southeast 330 380 27,000 180 Climbing Indianapolis Center
03:04PM 37.2731 -83.1222 136° Southeast 348 400 27,000  Level Indianapolis Center
03:05PM 37.2028 -83.0367 136° Southeast 352 405 27,000  Level Indianapolis Center
03:06PM 37.1339 -82.9539 136° Southeast 344 396 27,000  Level Indianapolis Center
03:07PM 37.0536 -82.8578 136° Southeast 338 389 27,000  Level Indianapolis Center
03:08PM 37.0197 -82.8144 134° Southeast 338 389 27,000  Level Atlanta Center
03:09PM 36.9500 -82.7297 136° Southeast 344 396 27,000  Level Atlanta Center
03:10PM 36.8867 -82.6608 139° Southeast 344 396 27,000  Level Atlanta Center
03:11PM 36.8169 -82.5764 136° Southeast 344 396 27,000 -480 Level Atlanta Center
03:12PM 36.7450 -82.4947 138° Southeast 344 396 26,100 -1,140 Descending Atlanta Center
03:13PM 36.6667 -82.4006 136° Southeast 363 418 24,800 -1,080 Descending Atlanta Center
03:14PM 36.5903 -82.3089 136° Southeast 380 437 24,000 -420 Descending Atlanta Center
03:15PM 36.5119 -82.2203 138° Southeast 380 437 24,000  Level Atlanta Center
03:16PM 36.4378 -82.1367 138° Southeast 372 428 24,000  Level Atlanta Center
03:17PM 36.3533 -82.0769 150° Southeast 359 413 24,000  Level Atlanta Center
03:18PM 36.2711 -82.0222 152° Southeast 339 390 24,000  Level Atlanta Center
03:19PM 36.1806 -81.9628 152° Southeast 334 384 24,000 -300 Level Atlanta Center
03:20PM 36.0961 -81.9083 152° Southeast 334 384 23,500 -1,320 Descending Atlanta Center
03:21PM 36.0094 -81.8492 151° Southeast 340 391 21,400 -5,760 Descending Atlanta Center
03:22PM 35.9233 -81.8131 161° South 342 394 12,000 -2,100 Descending Atlanta Center
03:23PM 35.8381 -81.8308 190° South 324 373 17,300 1,620 Climbing Atlanta Center
03:24PM 35.7608 -81.8303 180° South 296 341 15,300 -2,040 Descending Atlanta Center
03:25PM 35.7117 -81.7575 130° Southeast 270 311 13,300 -1,740 Descending Atlanta Center
03:26PM 35.6686 -81.6844 126° Southeast 254 292 11,900 -660 Descending Atlanta Center
03:27PM 35.6256 -81.6167 128° Southeast 265 305 12,000  Climbing Atlanta Center
03:28PM 35.5783 -81.5467 130° Southeast 254 292 12,000 -300 Level Atlanta Center
03:29PM 35.5331 -81.4792 129° Southeast 260 299 11,400 -1,080 Descending Atlanta Center
03:30PM 35.4878 -81.4092 128° Southeast 260 299 10,000 -1,200 Descending Atlanta Center
03:31PM 35.4444 -81.3417 128° Southeast 260 299 9,000 -540 Descending Atlanta Center
03:32PM 35.4058 -81.2869 131° Southeast 248 285 9,000  Level Atlanta Center
03:34PM 35.3214 -81.1600 129° Southeast 226 260 9,000  Level Atlanta Center
03:35PM 35.2803 -81.0978 129° Southeast 237 273 9,000 -420 Level Atlanta Center
03:36PM 35.2192 -81.0744 163° South 236 272 8,200 -1,200 Descending Atlanta Center
03:37PM 35.1503 -81.0692 176° South 231 266 6,600 -1,140 Descending Atlanta Center
03:38PM 35.0897 -81.0614 174° South 222 255 6,000 -300 Descending Atlanta Center
03:39PM 35.0394 -81.0556 175° South 168 193 6,000  Level Atlanta Center
03:40PM 34.9892 -81.0497 175° South 178 205 6,000 -480 Level Atlanta Center
03:41PM 34.9369 -81.0464 177° South 186 214 5,100 -480 Descending Atlanta Center
03:42PM 34.9192 -80.9989 115° Southeast 172 198 5,000 -60 Descending Atlanta Center
03:43PM 34.9453 -80.9575 52° Northeast 177 204 5,000 -120 Level Atlanta Center
03:44PM 34.9972 -80.9531 North 228 262 4,800 -780 Descending Atlanta Center
03:45PM 35.0703 -80.9553 359° North 203 234 3,400 -1,140 Descending Atlanta Center
03:46PM 35.1100 -80.9589 356° North 178 205 2,600 -900 Descending Atlanta Center
03:47PM 35.1622 -80.9647 355° North 139 160 1,600 -840 Descending Atlanta Center